Time;durP1;ratioP1;P1;durP2;ratioP2;P2;SDS_P1;SDS_P2;PMS_P1;PMS_P2;Temp;Humidity;BMP_temperature;BMP_pressure;BME280_temperature;BME280_humidity;BME280_pressure;Samples;Min_cycle;Max_cycle;Signal;HPM_P1;HPM_P2
2022/02/27 00:02:13;;;;;;;17.08;6.45;;;;;;;0.42;84.05;102882.13;5038860;28;20049;-90
2022/02/27 00:04:39;;;;;;;12.43;5.38;;;;;;;0.40;85.18;102886.28;5046415;28;20049;-90
2022/02/27 00:07:06;;;;;;;8.98;4.30;;;;;;;0.35;84.87;102885.06;5029013;28;20491;-90
2022/02/27 00:09:36;;;;;;;13.13;4.88;;;;;;;0.34;85.52;102879.03;5052306;28;20045;-90
2022/02/27 00:12:07;;;;;;;8.23;5.00;;;;;;;0.35;85.88;102880.78;5028033;28;20049;-89
2022/02/27 00:14:34;;;;;;;8.05;4.63;;;;;;;0.32;85.22;102883.16;5061815;28;20074;-90
2022/02/27 00:17:07;;;;;;;9.30;4.50;;;;;;;0.29;85.87;102881.28;5041298;28;20037;-90
2022/02/27 00:19:34;;;;;;;8.95;4.53;;;;;;;0.29;86.07;102882.97;5047136;28;20025;-92
2022/02/27 00:22:02;;;;;;;10.68;4.85;;;;;;;0.26;85.99;102896.53;5078285;28;20056;-91
2022/02/27 00:24:29;;;;;;;19.25;6.63;;;;;;;0.23;86.51;102891.16;5060906;28;20077;-90
2022/02/27 00:26:57;;;;;;;9.57;5.68;;;;;;;0.19;86.90;102888.28;5068033;28;20045;-90
2022/02/27 00:29:23;;;;;;;9.82;4.63;;;;;;;0.19;87.90;102893.41;5076786;28;20033;-89
2022/02/27 00:31:51;;;;;;;11.10;5.53;;;;;;;0.16;87.79;102899.25;5047014;28;20045;-89
2022/02/27 00:37:37;;;;;;;9.32;5.55;;;;;;;0.14;89.27;102894.00;5056754;28;20049;-89
2022/02/27 00:40:06;;;;;;;5.85;3.97;;;;;;;0.11;89.05;102895.47;5058549;28;20112;-90
2022/02/27 00:42:36;;;;;;;12.32;5.18;;;;;;;0.07;90.12;102889.19;5061973;28;20053;-89
2022/02/27 00:45:08;;;;;;;6.80;3.70;;;;;;;0.03;89.43;102888.84;5047041;28;20072;-89
2022/02/27 00:47:37;;;;;;;18.17;5.28;;;;;;;-0.05;89.55;102885.78;5067526;28;20084;-91
2022/02/27 00:50:05;;;;;;;8.93;5.65;;;;;;;-0.11;90.34;102886.22;5059108;28;20108;-88
2022/02/27 00:52:34;;;;;;;10.10;5.38;;;;;;;-0.14;91.76;102880.84;5068293;28;20079;-87
2022/02/27 00:55:01;;;;;;;10.52;4.32;;;;;;;-0.18;91.56;102881.44;5074827;28;20067;-90
2022/02/27 00:57:29;;;;;;;7.50;5.65;;;;;;;-0.21;92.09;102884.69;5071315;28;20186;-88
2022/02/27 00:59:57;;;;;;;14.25;5.15;;;;;;;-0.20;92.90;102878.72;5032168;28;20053;-90
2022/02/27 01:02:24;;;;;;;9.80;5.88;;;;;;;-0.20;92.28;102875.25;5068718;28;20098;-89
2022/02/27 01:04:51;;;;;;;8.50;4.65;;;;;;;-0.22;91.67;102881.97;5035724;28;20068;-89
2022/02/27 01:07:17;;;;;;;16.02;5.35;;;;;;;-0.26;92.40;102883.47;5043609;28;20094;-89
2022/02/27 01:09:44;;;;;;;16.45;5.47;;;;;;;-0.29;92.54;102883.22;5072047;28;20093;-89
2022/02/27 01:12:12;;;;;;;6.75;4.85;;;;;;;-0.32;92.93;102883.00;5062170;28;20129;-89
2022/02/27 01:14:40;;;;;;;10.55;5.75;;;;;;;-0.34;92.78;102882.91;5058827;28;20036;-89
2022/02/27 01:17:10;;;;;;;9.15;5.20;;;;;;;-0.37;93.62;102877.53;5050804;28;20048;-91
2022/02/27 01:19:39;;;;;;;7.93;4.50;;;;;;;-0.41;93.56;102875.50;5046698;28;20132;-89
2022/02/27 01:22:13;;;;;;;5.70;3.78;;;;;;;-0.45;93.17;102863.22;5044492;28;20128;-91
2022/02/27 01:24:40;;;;;;;14.48;5.18;;;;;;;-0.47;94.10;102874.19;5060063;28;20049;-89
2022/02/27 01:27:08;;;;;;;11.20;5.88;;;;;;;-0.51;94.54;102875.63;5053760;28;20032;-91
2022/02/27 01:29:35;;;;;;;15.07;7.78;;;;;;;-0.53;93.75;102875.53;5062558;28;20574;-89
2022/02/27 01:34:53;;;;;;;5.90;4.28;;;;;;;-0.56;94.52;102874.41;5058712;28;20398;-92
2022/02/27 01:37:20;;;;;;;13.73;5.68;;;;;;;-0.57;94.79;102870.94;5074881;28;20063;-91
2022/02/27 01:39:47;;;;;;;11.30;5.50;;;;;;;-0.59;94.92;102875.06;5057883;28;20060;-90
2022/02/27 01:42:21;;;;;;;8.13;5.28;;;;;;;-0.60;95.09;102875.88;5038923;28;20049;-91
2022/02/27 01:44:48;;;;;;;10.23;4.70;;;;;;;-0.61;95.46;102879.25;5055415;28;20048;-90
2022/02/27 01:48:02;;;;;;;7.40;4.63;;;;;;;-0.61;95.01;102888.59;5044840;28;20043;-89
2022/02/27 01:56:09;;;;;;;12.40;6.47;;;;;;;-0.60;97.08;102891.31;5054296;28;20049;-89
2022/02/27 01:58:42;;;;;;;6.60;4.63;;;;;;;-0.59;96.55;102887.06;5047711;28;20238;-89
2022/02/27 02:01:10;;;;;;;10.98;5.72;;;;;;;-0.62;96.45;102886.84;5057736;28;20099;-89
2022/02/27 02:03:38;;;;;;;8.90;6.03;;;;;;;-0.64;96.72;102889.28;5018604;28;20036;-90
2022/02/27 02:06:07;;;;;;;10.75;5.95;;;;;;;-0.65;96.53;102879.81;5052383;28;20078;-89
2022/02/27 02:08:34;;;;;;;7.15;4.95;;;;;;;-0.66;96.22;102878.00;5073142;28;20037;-91
2022/02/27 02:11:04;;;;;;;7.00;4.55;;;;;;;-0.65;97.69;102878.88;5055090;28;20055;-91
2022/02/27 02:13:31;;;;;;;11.13;5.03;;;;;;;-0.67;96.67;102877.09;5049751;28;20044;-90
2022/02/27 02:16:00;;;;;;;7.60;4.63;;;;;;;-0.69;97.35;102870.97;5038245;28;20059;-90
2022/02/27 02:18:31;;;;;;;7.38;4.47;;;;;;;-0.70;97.53;102874.31;5054062;28;20095;-89
2022/02/27 02:20:57;;;;;;;14.45;5.55;;;;;;;-0.71;97.40;102880.22;5046264;28;20040;-90
2022/02/27 02:23:24;;;;;;;12.77;6.00;;;;;;;-0.74;97.08;102874.88;5051135;28;20057;-90
2022/02/27 02:25:51;;;;;;;9.85;5.28;;;;;;;-0.75;97.70;102872.19;5027290;28;20123;-89
2022/02/27 02:28:19;;;;;;;9.55;6.22;;;;;;;-0.74;98.49;102863.69;5055720;28;20045;-90
2022/02/27 02:30:48;;;;;;;10.60;5.70;;;;;;;-0.76;97.70;102871.28;5047085;28;20051;-89
2022/02/27 02:33:15;;;;;;;8.65;4.85;;;;;;;-0.79;97.97;102871.06;5061193;28;20071;-89
2022/02/27 02:35:44;;;;;;;8.98;5.00;;;;;;;-0.79;98.21;102865.94;5054141;28;20127;-89
2022/02/27 02:38:11;;;;;;;11.27;6.28;;;;;;;-0.81;98.25;102867.47;5034760;28;20114;-90
2022/02/27 02:40:38;;;;;;;12.70;7.50;;;;;;;-0.84;98.29;102868.16;5042825;28;20040;-90
2022/02/27 02:43:04;;;;;;;9.73;5.28;;;;;;;-0.84;98.56;102865.56;5052650;28;20052;-89
2022/02/27 02:45:31;;;;;;;19.10;6.57;;;;;;;-0.87;98.66;102872.19;5042451;28;20055;-90
2022/02/27 02:47:59;;;;;;;12.77;6.47;;;;;;;-0.89;99.06;102861.78;5053149;28;20044;-89
2022/02/27 02:50:26;;;;;;;11.27;5.55;;;;;;;-0.92;99.13;102864.13;5047488;28;20102;-91
2022/02/27 02:52:52;;;;;;;13.45;5.47;;;;;;;-0.95;99.44;102865.56;5058473;28;20749;-89
2022/02/27 02:55:21;;;;;;;15.63;6.07;;;;;;;-0.98;99.81;102866.22;5057456;28;20051;-89
2022/02/27 02:57:49;;;;;;;17.08;5.47;;;;;;;-1.00;99.66;102862.69;5056937;28;20051;-88
2022/02/27 03:00:16;;;;;;;14.30;7.65;;;;;;;-1.04;100.00;102861.53;5050742;28;20052;-88
2022/02/27 03:02:43;;;;;;;15.48;5.50;;;;;;;-1.03;100.00;102862.44;5065030;28;20119;-89
2022/02/27 03:05:14;;;;;;;11.57;5.20;;;;;;;-1.05;100.00;102862.31;5052561;28;20044;-89
2022/02/27 03:07:42;;;;;;;12.43;6.25;;;;;;;-1.05;100.00;102859.75;5042896;28;20431;-90
2022/02/27 03:10:12;;;;;;;12.05;5.45;;;;;;;-1.05;100.00;102857.19;5066020;28;20047;-89
2022/02/27 03:12:41;;;;;;;12.38;6.18;;;;;;;-1.06;100.00;102864.78;5060067;28;20052;-88
2022/02/27 03:15:10;;;;;;;12.20;5.97;;;;;;;-1.06;100.00;102868.25;5059384;28;20566;-90
2022/02/27 03:17:37;;;;;;;15.88;5.50;;;;;;;-1.08;100.00;102863.75;5047070;28;20040;-90
2022/02/27 03:20:05;;;;;;;14.27;5.60;;;;;;;-1.09;100.00;102868.03;5049902;28;20039;-90
2022/02/27 03:22:31;;;;;;;13.07;6.10;;;;;;;-1.11;100.00;102864.44;5048156;28;20041;-89
2022/02/27 03:24:58;;;;;;;11.98;5.60;;;;;;;-1.13;100.00;102860.88;5042580;28;20037;-88
2022/02/27 03:27:24;;;;;;;7.63;5.13;;;;;;;-1.14;100.00;102865.91;5044459;28;20056;-89
2022/02/27 03:29:51;;;;;;;9.57;5.32;;;;;;;-1.13;100.00;102863.44;5048972;28;20049;-89
2022/02/27 03:32:21;;;;;;;16.50;5.82;;;;;;;-1.11;100.00;102867.00;5036711;28;20056;-89
2022/02/27 03:34:48;;;;;;;14.18;7.72;;;;;;;-1.14;100.00;102859.06;5043421;28;20485;-89
2022/02/27 03:37:14;;;;;;;14.80;5.10;;;;;;;-1.15;100.00;102862.41;5054231;28;20116;-90
2022/02/27 03:39:41;;;;;;;16.58;7.30;;;;;;;-1.15;100.00;102859.84;5054109;28;20048;-89
2022/02/27 03:42:08;;;;;;;11.65;4.82;;;;;;;-1.15;100.00;102856.41;5038133;28;20060;-89
2022/02/27 03:44:35;;;;;;;12.88;5.18;;;;;;;-1.15;100.00;102861.53;5056679;28;20048;-91
2022/02/27 03:47:03;;;;;;;7.78;4.53;;;;;;;-1.16;100.00;102870.94;5039072;28;20040;-90
2022/02/27 03:49:29;;;;;;;18.05;5.82;;;;;;;-1.16;100.00;102868.38;5038783;28;20048;-89
2022/02/27 03:51:56;;;;;;;14.88;5.00;;;;;;;-1.14;100.00;102864.22;5053884;28;20128;-88
2022/02/27 03:54:23;;;;;;;14.65;5.18;;;;;;;-1.15;100.00;102857.28;5051709;28;20132;-89
2022/02/27 03:56:51;;;;;;;10.07;5.40;;;;;;;-1.18;100.00;102852.81;5055149;28;20461;-89
2022/02/27 03:59:18;;;;;;;10.73;5.65;;;;;;;-1.20;100.00;102856.94;5073493;28;20025;-93
2022/02/27 04:01:46;;;;;;;22.17;7.32;;;;;;;-1.24;100.00;102860.06;5076566;28;20032;-89
2022/02/27 04:04:13;;;;;;;17.20;5.20;;;;;;;-1.29;100.00;102851.13;5055751;28;20710;-89
2022/02/27 04:06:40;;;;;;;18.48;5.78;;;;;;;-1.28;100.00;102852.00;5027083;28;20113;-88
2022/02/27 04:09:06;;;;;;;10.05;6.03;;;;;;;-1.28;100.00;102857.16;5058477;28;20077;-87
2022/02/27 04:11:33;;;;;;;9.20;5.45;;;;;;;-1.31;100.00;102855.25;5062280;28;20483;-90
2022/02/27 04:14:00;;;;;;;10.70;6.68;;;;;;;-1.30;100.00;102854.47;5040812;28;20091;-91
2022/02/27 04:16:28;;;;;;;9.30;6.30;;;;;;;-1.33;100.00;102854.22;5055095;28;20045;-89
2022/02/27 04:18:55;;;;;;;20.67;8.30;;;;;;;-1.33;100.00;102860.28;5050223;28;20132;-89
2022/02/27 04:21:23;;;;;;;8.75;5.03;;;;;;;-1.34;100.00;102855.03;5056767;28;20098;-89
2022/02/27 04:23:54;;;;;;;9.95;5.25;;;;;;;-1.33;100.00;102864.50;5039303;28;20052;-89
2022/02/27 04:26:22;;;;;;;10.85;5.32;;;;;;;-1.31;100.00;102859.50;5059337;28;20053;-89
2022/02/27 04:28:49;;;;;;;9.98;5.22;;;;;;;-1.34;100.00;102867.88;5049852;28;20048;-89
2022/02/27 04:31:16;;;;;;;13.35;5.68;;;;;;;-1.40;100.00;102864.84;5042302;28;20135;-90
2022/02/27 04:33:43;;;;;;;8.45;6.20;;;;;;;-1.44;100.00;102868.84;5047801;28;20082;-88
2022/02/27 04:36:10;;;;;;;13.70;5.47;;;;;;;-1.44;100.00;102861.13;5057536;28;20044;-89
2022/02/27 04:38:36;;;;;;;14.85;6.60;;;;;;;-1.45;100.00;102861.91;5066290;28;20033;-89
2022/02/27 04:41:03;;;;;;;7.90;4.47;;;;;;;-1.47;100.00;102865.13;5046785;28;20139;-89
2022/02/27 04:43:31;;;;;;;6.28;4.78;;;;;;;-1.51;100.00;102864.03;5058454;28;20044;-89
2022/02/27 04:45:58;;;;;;;14.38;6.18;;;;;;;-1.53;100.00;102856.19;5046898;28;20054;-90
2022/02/27 04:48:25;;;;;;;12.10;6.30;;;;;;;-1.50;100.00;102859.00;5049332;28;20584;-90
2022/02/27 04:50:53;;;;;;;11.60;5.97;;;;;;;-1.48;100.00;102860.78;5042466;28;20125;-89
2022/02/27 04:53:20;;;;;;;12.80;5.32;;;;;;;-1.50;100.00;102863.22;5048383;28;20048;-91
2022/02/27 04:55:48;;;;;;;8.68;5.35;;;;;;;-1.51;100.00;102864.91;5031260;28;20052;-91
2022/02/27 04:58:17;;;;;;;8.80;5.55;;;;;;;-1.54;100.00;102863.78;5042645;28;20045;-89
2022/02/27 05:00:44;;;;;;;10.73;5.38;;;;;;;-1.56;100.00;102855.06;5059478;28;20048;-89
2022/02/27 05:03:11;;;;;;;9.73;5.07;;;;;;;-1.55;100.00;102854.28;5049294;28;20446;-89
2022/02/27 05:05:38;;;;;;;15.50;6.72;;;;;;;-1.53;100.00;102860.44;5059075;28;20051;-89
2022/02/27 05:08:05;;;;;;;18.95;7.35;;;;;;;-1.50;100.00;102853.88;5057163;28;20094;-90
2022/02/27 05:10:32;;;;;;;14.95;6.57;;;;;;;-1.51;100.00;102859.78;5040843;28;20135;-89
2022/02/27 05:12:59;;;;;;;13.77;7.05;;;;;;;-1.53;100.00;102857.88;5039964;28;20036;-89
2022/02/27 05:15:25;;;;;;;10.05;6.28;;;;;;;-1.56;100.00;102855.06;5060065;28;20040;-89
2022/02/27 05:17:54;;;;;;;12.38;6.60;;;;;;;-1.56;100.00;102853.38;5044218;28;20143;-89
2022/02/27 05:20:22;;;;;;;15.85;7.70;;;;;;;-1.55;100.00;102861.97;5035539;28;20111;-88
2022/02/27 05:22:55;;;;;;;14.57;6.20;;;;;;;-1.55;100.00;102857.75;5058028;28;20056;-88
2022/02/27 05:25:40;;;;;;;13.80;6.38;;;;;;;-1.62;100.00;102860.63;5052221;28;20461;-88
2022/02/27 05:28:06;;;;;;;14.20;5.55;;;;;;;-1.64;100.00;102867.34;5045953;28;20089;-89
2022/02/27 05:30:43;;;;;;;9.43;6.00;;;;;;;-1.66;100.00;102866.31;5065342;28;20033;-91
2022/02/27 05:33:15;;;;;;;13.93;6.65;;;;;;;-1.65;100.00;102862.97;5076472;28;20764;-90
2022/02/27 05:35:42;;;;;;;11.98;6.45;;;;;;;-1.66;100.00;102863.75;5062654;28;20147;-90
2022/02/27 05:38:10;;;;;;;14.65;6.97;;;;;;;-1.67;100.00;102867.06;5058443;28;20025;-90
2022/02/27 05:40:37;;;;;;;17.48;6.82;;;;;;;-1.69;100.00;102877.25;5077245;28;20041;-91
2022/02/27 05:43:04;;;;;;;21.85;8.30;;;;;;;-1.70;100.00;102872.00;5060035;28;20047;-89
2022/02/27 05:45:31;;;;;;;20.08;9.07;;;;;;;-1.75;100.00;102879.31;5065326;28;20052;-89
2022/02/27 05:47:59;;;;;;;18.23;7.40;;;;;;;-1.77;100.00;102879.97;5031843;28;20049;-88
2022/02/27 05:50:25;;;;;;;13.88;6.47;;;;;;;-1.77;100.00;102879.97;5076179;28;20020;-88
2022/02/27 05:52:52;;;;;;;20.77;7.80;;;;;;;-1.81;100.00;102884.00;5072272;28;20055;-90
2022/02/27 05:55:19;;;;;;;16.42;8.18;;;;;;;-1.84;100.00;102888.88;5071580;28;20511;-88
2022/02/27 05:57:45;;;;;;;16.55;7.53;;;;;;;-1.83;100.00;102898.38;5046473;28;20041;-90
2022/02/27 06:00:13;;;;;;;15.85;7.65;;;;;;;-1.84;100.00;102899.16;5046200;28;20036;-89
2022/02/27 06:02:43;;;;;;;16.85;7.07;;;;;;;-1.86;100.00;102899.03;5054527;28;20036;-88
2022/02/27 06:05:12;;;;;;;13.70;7.38;;;;;;;-1.91;100.00;102897.78;5039288;28;20059;-89
2022/02/27 06:07:44;;;;;;;16.83;7.43;;;;;;;-1.92;100.00;102905.38;5035797;28;20049;-90
2022/02/27 06:10:14;;;;;;;15.23;7.28;;;;;;;-1.93;100.00;102899.34;5039550;28;20166;-90
2022/02/27 06:12:51;;;;;;;14.00;7.53;;;;;;;-1.95;100.00;102897.44;5043961;28;20445;-89
2022/02/27 06:15:23;;;;;;;17.50;6.80;;;;;;;-1.96;100.00;102904.22;5055863;28;20450;-89
2022/02/27 06:17:51;;;;;;;15.55;6.72;;;;;;;-1.95;100.00;102911.16;5046974;28;20083;-89
2022/02/27 06:20:18;;;;;;;13.55;6.57;;;;;;;-1.96;100.00;102906.78;5046972;28;20135;-89
2022/02/27 06:22:49;;;;;;;16.48;6.90;;;;;;;-1.96;100.00;102906.78;5061883;28;20440;-91
2022/02/27 06:25:22;;;;;;;10.80;7.38;;;;;;;-1.93;100.00;102916.41;5055021;28;20040;-92
2022/02/27 06:27:52;;;;;;;14.45;7.15;;;;;;;-1.90;100.00;102914.97;5052769;28;20041;-89
2022/02/27 06:30:37;;;;;;;14.90;7.85;;;;;;;-1.84;100.00;102914.56;5054710;28;20578;-90
2022/02/27 06:33:09;;;;;;;17.05;7.07;;;;;;;-1.85;100.00;102917.94;5054165;28;20421;-93
2022/02/27 06:35:36;;;;;;;24.75;8.00;;;;;;;-1.83;100.00;102917.25;5056257;28;20052;-90
2022/02/27 06:38:02;;;;;;;17.45;7.90;;;;;;;-1.83;100.00;102919.81;5031416;28;20051;-90
2022/02/27 06:40:29;;;;;;;13.48;7.35;;;;;;;-1.82;100.00;102923.28;5036919;28;20041;-90
2022/02/27 06:42:56;;;;;;;19.08;7.78;;;;;;;-1.81;100.00;102925.09;5042686;28;20045;-89
2022/02/27 06:51:17;;;;;;;18.05;7.65;;;;;;;-1.78;100.00;102932.13;5046107;28;20053;-90
2022/02/27 06:54:14;;;;;;;20.92;8.73;;;;;;;-1.74;100.00;102935.03;5064594;28;20051;-89
2022/02/27 06:56:43;;;;;;;12.00;7.90;;;;;;;-1.72;100.00;102941.22;5042563;28;20048;-91
2022/02/27 06:59:13;;;;;;;17.25;8.15;;;;;;;-1.66;100.00;102940.78;5077913;28;20040;-89
2022/02/27 07:01:40;;;;;;;15.85;8.60;;;;;;;-1.64;100.00;102934.09;5038769;28;20037;-90
2022/02/27 07:04:24;;;;;;;14.95;8.15;;;;;;;-1.61;100.00;102941.16;5055671;28;20052;-90
2022/02/27 07:06:54;;;;;;;12.40;7.80;;;;;;;-1.56;100.00;102942.41;5058681;28;20036;-90
2022/02/27 07:09:28;;;;;;;19.50;9.00;;;;;;;-1.52;100.00;102942.75;5033925;28;20071;-90
2022/02/27 07:11:55;;;;;;;15.50;8.15;;;;;;;-1.47;100.00;102945.69;5053512;28;20055;-91
2022/02/27 07:14:27;;;;;;;15.43;7.50;;;;;;;-1.43;100.00;102952.84;5036304;28;20447;-90
2022/02/27 07:16:54;;;;;;;16.30;7.57;;;;;;;-1.36;100.00;102946.50;5051552;28;20040;-90
2022/02/27 07:19:21;;;;;;;21.52;8.80;;;;;;;-1.27;100.00;102941.19;5034927;28;20064;-89
2022/02/27 07:21:51;;;;;;;18.45;8.20;;;;;;;-1.13;100.00;102940.53;5050608;28;20049;-92
2022/02/27 07:24:18;;;;;;;15.25;8.48;;;;;;;-0.73;100.00;102943.53;5055543;28;20044;-89
2022/02/27 07:26:45;;;;;;;22.10;8.30;;;;;;;-0.14;100.00;102945.22;5041535;28;20044;-90
2022/02/27 07:29:12;;;;;;;14.57;7.00;;;;;;;0.48;100.00;102941.81;5048294;28;20040;-90
2022/02/27 07:31:40;;;;;;;17.35;8.55;;;;;;;1.03;100.00;102952.44;5065868;28;20048;-89
2022/02/27 07:34:07;;;;;;;13.77;7.40;;;;;;;1.54;100.00;102942.88;5047182;28;20049;-90
2022/02/27 07:36:35;;;;;;;10.10;6.22;;;;;;;2.00;100.00;102946.63;5069865;28;20044;-90
2022/02/27 07:39:05;;;;;;;21.00;8.27;;;;;;;2.37;97.83;102946.31;5082833;28;20037;-89
2022/02/27 07:41:39;;;;;;;17.23;7.22;;;;;;;2.75;95.50;102948.66;5055395;28;20064;-92
2022/02/27 07:44:06;;;;;;;6.07;5.47;;;;;;;3.20;94.81;102953.88;5062508;28;20055;-91
2022/02/27 07:46:33;;;;;;;16.80;6.70;;;;;;;3.31;92.07;102955.41;5071589;28;20055;-92
2022/02/27 07:51:45;;;;;;;12.52;6.35;;;;;;;2.89;87.17;102953.75;5060787;28;20072;-90
2022/02/27 07:54:11;;;;;;;11.60;6.50;;;;;;;2.87;87.60;102956.25;5037140;28;20048;-90
2022/02/27 07:56:39;;;;;;;13.90;6.30;;;;;;;2.52;86.72;102964.47;5046100;28;20148;-91
2022/02/27 07:59:06;;;;;;;10.98;6.53;;;;;;;2.12;87.71;102963.75;5058170;28;20044;-90
2022/02/27 08:01:38;;;;;;;12.13;6.75;;;;;;;1.83;90.19;102953.28;5061137;28;20498;-90
2022/02/27 08:04:13;;;;;;;17.95;7.15;;;;;;;1.52;90.61;102957.34;5052333;28;20115;-92
2022/02/27 08:06:46;;;;;;;13.15;6.70;;;;;;;1.29;92.11;102955.84;5049517;28;20037;-89
2022/02/27 08:09:13;;;;;;;13.35;6.03;;;;;;;1.14;93.92;102961.75;5055988;28;20131;-90
2022/02/27 08:11:40;;;;;;;16.58;6.85;;;;;;;1.07;93.98;102963.81;5043550;28;20483;-90
2022/02/27 08:18:23;;;;;;;14.65;7.45;;;;;;;0.99;95.51;102966.78;5013251;28;20394;-90
2022/02/27 08:20:53;;;;;;;18.77;8.05;;;;;;;0.98;95.70;102962.41;5059950;28;20055;-91
2022/02/27 08:23:22;;;;;;;14.30;7.97;;;;;;;0.96;95.96;102958.84;5047334;28;20110;-90
2022/02/27 08:25:52;;;;;;;15.38;7.30;;;;;;;0.98;96.21;102975.31;5040796;28;20064;-91
2022/02/27 08:28:24;;;;;;;14.98;7.30;;;;;;;0.99;96.49;102977.13;5056772;28;20056;-91
2022/02/27 08:30:52;;;;;;;13.18;7.28;;;;;;;1.02;96.55;102973.84;5040288;28;20045;-90
2022/02/27 08:33:19;;;;;;;13.90;7.70;;;;;;;1.08;96.91;102974.28;5054677;28;20067;-90
2022/02/27 08:35:46;;;;;;;12.32;6.25;;;;;;;1.19;97.04;102967.25;5040187;28;20048;-90
2022/02/27 08:38:29;;;;;;;14.90;7.07;;;;;;;1.26;96.97;102973.69;5054594;28;20055;-88
2022/02/27 08:40:56;;;;;;;18.15;7.90;;;;;;;1.38;96.46;102977.09;5056680;28;20471;-90
2022/02/27 08:43:38;;;;;;;12.95;8.48;;;;;;;1.48;96.50;102973.44;5056815;28;20486;-89
2022/02/27 08:46:27;;;;;;;17.63;7.05;;;;;;;1.58;96.02;102977.53;5039210;28;20080;-90
2022/02/27 08:49:02;;;;;;;9.00;6.07;;;;;;;1.63;95.69;102977.03;5053536;28;20115;-90
2022/02/27 08:55:07;;;;;;;12.10;7.85;;;;;;;1.78;95.60;102983.97;5066706;28;20049;-90
2022/02/27 08:57:55;;;;;;;10.68;6.30;;;;;;;1.86;95.25;102968.97;5047179;28;20055;-90
2022/02/27 09:00:23;;;;;;;14.32;7.50;;;;;;;1.94;94.28;102976.44;5055029;28;20148;-89
2022/02/27 09:10:49;;;;;;;10.55;6.43;;;;;;;2.18;92.05;102971.03;4953164;28;20042;-88
2022/02/27 09:22:57;;;;;;;9.70;6.28;;;;;;;2.41;90.66;102972.47;5076600;28;20032;-89
2022/02/27 09:25:27;;;;;;;16.15;7.90;;;;;;;2.47;89.96;102975.41;5057799;28;20064;-90
2022/02/27 09:27:55;;;;;;;13.45;6.43;;;;;;;2.53;89.93;102979.16;5053724;28;20143;-90
2022/02/27 09:33:11;;;;;;;11.90;5.90;;;;;;;2.67;87.32;102969.69;5080541;28;20048;-93
2022/02/27 09:35:40;;;;;;;8.35;6.63;;;;;;;2.74;87.78;102971.84;5072073;28;20048;-93
2022/02/27 09:38:10;;;;;;;12.77;7.53;;;;;;;2.81;85.95;102969.69;5080833;28;20040;-89
2022/02/27 09:40:57;;;;;;;13.23;7.88;;;;;;;2.89;84.01;102970.16;5074668;28;20056;-87
2022/02/27 09:43:29;;;;;;;14.77;5.57;;;;;;;2.94;84.75;102968.75;5067059;28;20048;-88
2022/02/27 09:48:46;;;;;;;6.80;4.57;;;;;;;3.05;83.20;102978.84;5043397;28;20077;-90
2022/02/27 09:51:15;;;;;;;11.23;5.13;;;;;;;3.11;82.30;102969.75;5055794;28;20056;-88
2022/02/27 10:21:52;;;;;;;6.65;4.00;;;;;;;4.01;74.58;102954.09;5013811;28;20045;-88
2022/02/27 10:25:00;;;;;;;6.45;4.15;;;;;;;4.11;74.20;102956.41;5004681;28;20046;-90
2022/02/27 10:28:07;;;;;;;6.75;4.43;;;;;;;4.21;74.10;102950.03;5007747;28;20041;-90
2022/02/27 10:40:06;;;;;;;5.00;3.85;;;;;;;4.50;69.70;102937.72;4949245;28;20043;-91
2022/02/27 10:45:40;;;;;;;6.18;3.60;;;;;;;4.67;69.13;102935.09;5002960;28;20842;-91
2022/02/27 10:48:20;;;;;;;10.15;5.00;;;;;;;4.76;68.57;102943.41;5041047;28;20067;-93
2022/02/27 10:54:05;;;;;;;5.95;4.03;;;;;;;4.85;67.39;102932.59;5083811;28;20044;-94
2022/02/27 10:56:37;;;;;;;7.18;3.78;;;;;;;4.90;68.08;102928.53;5074172;28;20061;-92
2022/02/27 10:59:26;;;;;;;9.75;4.30;;;;;;;4.92;67.73;102925.19;5082126;28;20087;-92
2022/02/27 11:01:53;;;;;;;7.05;3.08;;;;;;;4.99;67.21;102923.78;5060229;28;20487;-89
2022/02/27 11:04:23;;;;;;;7.25;4.65;;;;;;;5.04;67.62;102922.31;5070447;28;20040;-89
2022/02/27 11:06:53;;;;;;;8.73;4.13;;;;;;;5.12;66.62;102920.13;5045565;28;20040;-90
2022/02/27 11:09:21;;;;;;;7.95;4.07;;;;;;;5.21;67.40;102917.97;5064145;28;20048;-90
2022/02/27 11:11:48;;;;;;;7.25;3.95;;;;;;;5.28;66.22;102914.00;5043916;28;20052;-89
2022/02/27 11:14:34;;;;;;;15.77;6.10;;;;;;;5.31;66.14;102908.94;5063380;28;20066;-88
2022/02/27 11:17:16;;;;;;;5.32;4.10;;;;;;;5.42;65.54;102912.97;5074730;28;20123;-89
2022/02/27 11:34:48;;;;;;;8.52;4.53;;;;;;;5.95;63.40;102900.72;5061082;28;20040;-88
2022/02/27 11:37:20;;;;;;;13.15;4.28;;;;;;;6.06;63.86;102901.28;5052925;28;20102;-90
2022/02/27 11:40:39;;;;;;;5.65;4.00;;;;;;;6.21;61.63;102894.97;5073494;28;21370;-92
2022/02/27 11:43:06;;;;;;;12.23;3.55;;;;;;;6.42;59.53;102892.44;5061623;28;20053;-92
2022/02/27 11:45:33;;;;;;;10.55;4.35;;;;;;;6.53;58.36;102891.22;5054915;28;20044;-89
2022/02/27 11:48:00;;;;;;;9.45;3.70;;;;;;;6.68;58.67;102890.97;5066321;28;20041;-90
2022/02/27 11:50:44;;;;;;;6.45;3.60;;;;;;;6.85;58.96;102885.63;5069935;28;20399;-91
2022/02/27 11:53:25;;;;;;;5.35;4.05;;;;;;;7.01;59.60;102888.00;5079792;28;20044;-90
2022/02/27 11:55:54;;;;;;;9.23;3.65;;;;;;;7.20;57.71;102881.88;5061290;28;20103;-90
2022/02/27 11:58:43;;;;;;;6.35;4.03;;;;;;;7.49;56.10;102881.25;5058543;28;20045;-91
2022/02/27 12:01:11;;;;;;;9.18;3.55;;;;;;;7.67;54.69;102871.56;5066239;28;20071;-91
2022/02/27 12:03:46;;;;;;;5.60;2.83;;;;;;;7.88;55.96;102865.38;5057046;28;20074;-89
2022/02/27 12:06:13;;;;;;;4.13;3.15;;;;;;;8.10;53.17;102862.75;5064594;28;20068;-89
2022/02/27 12:09:14;;;;;;;3.45;2.50;;;;;;;8.28;53.38;102857.31;5037350;28;20053;-91
2022/02/27 12:11:42;;;;;;;8.35;2.03;;;;;;;8.49;50.65;102848.50;5068202;28;20102;-88
2022/02/27 12:14:17;;;;;;;4.32;1.90;;;;;;;8.63;49.05;102843.78;5045290;28;20044;-88
2022/02/27 12:16:48;;;;;;;4.68;2.17;;;;;;;8.75;50.10;102843.28;5036938;28;20144;-89
2022/02/27 12:22:44;;;;;;;5.78;2.92;;;;;;;8.99;48.37;102835.38;5065970;28;20060;-89
2022/02/27 12:25:11;;;;;;;6.00;2.90;;;;;;;9.17;48.37;102829.84;5040892;28;20048;-92
2022/02/27 12:27:41;;;;;;;4.13;2.65;;;;;;;9.41;47.88;102827.13;5032924;28;20052;-89
2022/02/27 12:30:23;;;;;;;5.97;2.88;;;;;;;9.74;48.27;102833.34;5042302;28;20073;-89
2022/02/27 12:32:50;;;;;;;9.38;4.45;;;;;;;10.17;46.94;102836.28;5047749;28;20049;-89
2022/02/27 12:35:40;;;;;;;6.05;2.80;;;;;;;10.53;46.88;102831.22;5055387;28;20487;-90
2022/02/27 12:38:13;;;;;;;4.82;3.25;;;;;;;10.83;45.76;102824.97;5036324;28;20036;-88
2022/02/27 12:43:15;;;;;;;8.25;3.92;;;;;;;11.26;46.35;102830.34;5534212;22;20053;-89
2022/02/27 12:45:42;;;;;;;4.57;2.88;;;;;;;11.30;46.04;102844.44;5036756;28;20072;-90
2022/02/27 12:50:10;;;;;;;5.22;3.15;;;;;;;11.66;45.61;102826.00;5019730;28;20084;-89
2022/02/27 12:57:55;;;;;;;7.63;3.92;;;;;;;11.97;44.42;102836.28;4997995;28;20050;-87
2022/02/27 13:00:27;;;;;;;7.90;3.58;;;;;;;11.81;44.97;102832.44;5021488;28;20111;-89
2022/02/27 13:02:55;;;;;;;11.40;4.27;;;;;;;11.88;45.67;102829.97;5022679;28;20061;-89
2022/02/27 13:05:33;;;;;;;13.18;5.40;;;;;;;12.35;45.19;102829.16;5021752;28;20284;-87
2022/02/27 13:08:09;;;;;;;10.38;4.25;;;;;;;12.68;43.62;102822.72;5016697;28;20487;-88
2022/02/27 13:10:41;;;;;;;7.88;3.88;;;;;;;12.41;43.36;102825.75;5005898;28;20048;-88
2022/02/27 13:13:14;;;;;;;8.18;3.30;;;;;;;11.74;44.62;102823.53;5029713;28;20049;-90
2022/02/27 13:19:00;;;;;;;5.05;2.20;;;;;;;10.68;46.16;102833.34;5021554;28;20042;-89
2022/02/27 13:21:28;;;;;;;5.03;2.67;;;;;;;10.91;46.05;102818.19;5029450;28;20312;-89
2022/02/27 13:24:01;;;;;;;6.30;4.05;;;;;;;11.22;45.25;102816.31;5002944;28;20045;-88
2022/02/27 13:26:30;;;;;;;3.50;3.17;;;;;;;11.08;45.58;102812.44;5019943;28;20052;-89
2022/02/27 13:29:00;;;;;;;10.02;5.10;;;;;;;10.79;46.54;102811.75;5001099;28;20049;-89
2022/02/27 13:31:31;;;;;;;5.72;3.45;;;;;;;10.51;46.81;102814.56;5005288;28;20059;-95
2022/02/27 13:34:00;;;;;;;7.75;4.28;;;;;;;9.83;48.30;102814.38;5028201;28;20049;-89
2022/02/27 13:36:27;;;;;;;7.22;4.00;;;;;;;9.53;47.39;102805.72;5008018;28;20045;-87
2022/02/27 13:38:54;;;;;;;5.30;3.10;;;;;;;9.33;47.58;102797.25;5000807;28;20041;-88
2022/02/27 13:41:40;;;;;;;5.05;3.53;;;;;;;9.30;48.11;102801.50;5025271;28;20037;-87